sensor_id;sensor_type;location;lat;lon;timestamp;temperature;humidity
69533;DHT22;56729;52.036;5.332;2024-01-11T00:01:01;-1.90;78.30
69533;DHT22;56729;52.036;5.332;2024-01-11T00:02:03;-1.90;78.40
69533;DHT22;56729;52.036;5.332;2024-01-11T00:03:06;-1.90;78.50
69533;DHT22;56729;52.036;5.332;2024-01-11T00:04:08;-1.90;78.60
69533;DHT22;56729;52.036;5.332;2024-01-11T00:05:10;-1.90;78.70
69533;DHT22;56729;52.036;5.332;2024-01-11T00:06:12;-1.90;78.80
69533;DHT22;56729;52.036;5.332;2024-01-11T00:07:14;-1.90;78.90
69533;DHT22;56729;52.036;5.332;2024-01-11T00:08:16;-1.90;78.90
69533;DHT22;56729;52.036;5.332;2024-01-11T00:09:18;-1.90;78.90
69533;DHT22;56729;52.036;5.332;2024-01-11T00:10:21;-1.90;79.90
69533;DHT22;56729;52.036;5.332;2024-01-11T00:11:23;-1.90;78.70
69533;DHT22;56729;52.036;5.332;2024-01-11T00:12:25;-1.90;78.80
69533;DHT22;56729;52.036;5.332;2024-01-11T00:13:27;-1.90;78.90
69533;DHT22;56729;52.036;5.332;2024-01-11T00:14:29;-1.90;80.00
69533;DHT22;56729;52.036;5.332;2024-01-11T00:15:31;-2.00;78.80
69533;DHT22;56729;52.036;5.332;2024-01-11T00:16:33;-1.90;78.90
69533;DHT22;56729;52.036;5.332;2024-01-11T00:17:35;-2.00;78.80
69533;DHT22;56729;52.036;5.332;2024-01-11T00:18:37;-2.00;78.80
69533;DHT22;56729;52.036;5.332;2024-01-11T00:19:40;-2.00;78.80
69533;DHT22;56729;52.036;5.332;2024-01-11T00:20:42;-2.00;78.90
69533;DHT22;56729;52.036;5.332;2024-01-11T00:21:44;-2.00;79.00
69533;DHT22;56729;52.036;5.332;2024-01-11T00:22:46;-2.00;79.00
69533;DHT22;56729;52.036;5.332;2024-01-11T00:23:49;-2.00;79.00
69533;DHT22;56729;52.036;5.332;2024-01-11T00:24:51;-2.10;79.10
69533;DHT22;56729;52.036;5.332;2024-01-11T00:25:53;-2.10;79.10
69533;DHT22;56729;52.036;5.332;2024-01-11T00:26:55;-2.10;79.10
69533;DHT22;56729;52.036;5.332;2024-01-11T00:27:57;-2.10;79.10
69533;DHT22;56729;52.036;5.332;2024-01-11T00:28:59;-2.10;79.30
69533;DHT22;56729;52.036;5.332;2024-01-11T00:30:01;-2.10;79.20
69533;DHT22;56729;52.036;5.332;2024-01-11T00:31:03;-2.10;79.20
69533;DHT22;56729;52.036;5.332;2024-01-11T00:32:05;-2.10;79.30
69533;DHT22;56729;52.036;5.332;2024-01-11T00:33:07;-2.20;79.20
69533;DHT22;56729;52.036;5.332;2024-01-11T00:34:10;-2.10;79.40
69533;DHT22;56729;52.036;5.332;2024-01-11T00:35:13;-2.10;79.50
69533;DHT22;56729;52.036;5.332;2024-01-11T00:36:18;-2.10;79.50
69533;DHT22;56729;52.036;5.332;2024-01-11T00:37:21;-2.10;79.50
69533;DHT22;56729;52.036;5.332;2024-01-11T00:38:24;-2.20;79.50
69533;DHT22;56729;52.036;5.332;2024-01-11T00:39:27;-2.20;79.60
69533;DHT22;56729;52.036;5.332;2024-01-11T00:40:28;-2.20;79.60
69533;DHT22;56729;52.036;5.332;2024-01-11T00:41:30;-2.20;79.60
69533;DHT22;56729;52.036;5.332;2024-01-11T00:42:33;-2.20;79.60
69533;DHT22;56729;52.036;5.332;2024-01-11T00:43:36;-2.20;79.60
69533;DHT22;56729;52.036;5.332;2024-01-11T00:44:38;-2.20;79.60
69533;DHT22;56729;52.036;5.332;2024-01-11T00:45:40;-2.20;79.50
69533;DHT22;56729;52.036;5.332;2024-01-11T00:46:42;-2.20;79.60
69533;DHT22;56729;52.036;5.332;2024-01-11T00:47:44;-2.20;79.60
69533;DHT22;56729;52.036;5.332;2024-01-11T00:48:46;-2.30;79.80
69533;DHT22;56729;52.036;5.332;2024-01-11T00:49:48;-2.30;79.70
69533;DHT22;56729;52.036;5.332;2024-01-11T00:50:50;-2.30;79.80
69533;DHT22;56729;52.036;5.332;2024-01-11T00:51:52;-2.30;79.70
69533;DHT22;56729;52.036;5.332;2024-01-11T00:52:54;-2.30;79.80
69533;DHT22;56729;52.036;5.332;2024-01-11T00:53:56;-2.30;79.80
69533;DHT22;56729;52.036;5.332;2024-01-11T00:54:58;-2.30;79.90
69533;DHT22;56729;52.036;5.332;2024-01-11T00:56:01;-2.30;79.90
69533;DHT22;56729;52.036;5.332;2024-01-11T00:57:04;-2.30;80.00
69533;DHT22;56729;52.036;5.332;2024-01-11T00:58:06;-2.40;79.90
69533;DHT22;56729;52.036;5.332;2024-01-11T00:59:08;-2.40;79.90
69533;DHT22;56729;52.036;5.332;2024-01-11T01:00:11;-2.40;79.90
69533;DHT22;56729;52.036;5.332;2024-01-11T01:01:15;-2.40;80.00
69533;DHT22;56729;52.036;5.332;2024-01-11T01:02:20;-2.40;80.10
69533;DHT22;56729;52.036;5.332;2024-01-11T01:03:22;-2.40;80.20
69533;DHT22;56729;52.036;5.332;2024-01-11T01:04:24;-2.40;80.20
69533;DHT22;56729;52.036;5.332;2024-01-11T01:05:26;-2.50;80.30
69533;DHT22;56729;52.036;5.332;2024-01-11T01:06:28;-2.50;80.30
69533;DHT22;56729;52.036;5.332;2024-01-11T01:07:31;-2.50;80.40
69533;DHT22;56729;52.036;5.332;2024-01-11T01:08:33;-2.50;80.40
69533;DHT22;56729;52.036;5.332;2024-01-11T01:09:35;-2.50;80.50
69533;DHT22;56729;52.036;5.332;2024-01-11T01:10:37;-2.50;80.70
69533;DHT22;56729;52.036;5.332;2024-01-11T01:11:39;-2.50;80.70
69533;DHT22;56729;52.036;5.332;2024-01-11T01:12:41;-2.50;80.70
69533;DHT22;56729;52.036;5.332;2024-01-11T01:13:43;-2.50;80.70
69533;DHT22;56729;52.036;5.332;2024-01-11T01:14:45;-2.50;80.60
69533;DHT22;56729;52.036;5.332;2024-01-11T01:15:47;-2.50;80.60
69533;DHT22;56729;52.036;5.332;2024-01-11T01:16:49;-2.50;80.60
69533;DHT22;56729;52.036;5.332;2024-01-11T01:17:51;-2.50;80.60
69533;DHT22;56729;52.036;5.332;2024-01-11T01:18:54;-2.60;80.80
69533;DHT22;56729;52.036;5.332;2024-01-11T01:19:56;-2.60;80.80
69533;DHT22;56729;52.036;5.332;2024-01-11T01:20:59;-2.60;80.80
69533;DHT22;56729;52.036;5.332;2024-01-11T01:22:01;-2.60;80.90
69533;DHT22;56729;52.036;5.332;2024-01-11T01:23:03;-2.60;81.00
69533;DHT22;56729;52.036;5.332;2024-01-11T01:24:05;-2.60;81.00
69533;DHT22;56729;52.036;5.332;2024-01-11T01:25:07;-2.60;81.00
69533;DHT22;56729;52.036;5.332;2024-01-11T01:26:09;-2.60;81.10
69533;DHT22;56729;52.036;5.332;2024-01-11T01:27:11;-2.60;81.20
69533;DHT22;56729;52.036;5.332;2024-01-11T01:28:13;-2.60;81.20
69533;DHT22;56729;52.036;5.332;2024-01-11T01:29:15;-2.60;81.20
69533;DHT22;56729;52.036;5.332;2024-01-11T01:30:17;-2.60;81.20
69533;DHT22;56729;52.036;5.332;2024-01-11T01:31:21;-2.60;81.20
69533;DHT22;56729;52.036;5.332;2024-01-11T01:32:23;-2.70;81.30
69533;DHT22;56729;52.036;5.332;2024-01-11T01:33:25;-2.60;81.40
69533;DHT22;56729;52.036;5.332;2024-01-11T01:34:27;-2.70;81.50
69533;DHT22;56729;52.036;5.332;2024-01-11T01:35:29;-2.70;81.50
69533;DHT22;56729;52.036;5.332;2024-01-11T01:36:31;-2.70;81.50
69533;DHT22;56729;52.036;5.332;2024-01-11T01:37:33;-2.70;81.50
69533;DHT22;56729;52.036;5.332;2024-01-11T01:38:35;-2.70;81.50
69533;DHT22;56729;52.036;5.332;2024-01-11T01:39:38;-2.70;81.60
69533;DHT22;56729;52.036;5.332;2024-01-11T01:40:40;-2.70;81.70
69533;DHT22;56729;52.036;5.332;2024-01-11T01:41:42;-2.70;81.80
69533;DHT22;56729;52.036;5.332;2024-01-11T01:42:45;-2.70;82.70
69533;DHT22;56729;52.036;5.332;2024-01-11T01:43:47;-2.70;81.70
69533;DHT22;56729;52.036;5.332;2024-01-11T01:44:49;-2.70;81.80
69533;DHT22;56729;52.036;5.332;2024-01-11T01:45:51;-2.80;81.80
69533;DHT22;56729;52.036;5.332;2024-01-11T01:46:54;-2.80;81.70
69533;DHT22;56729;52.036;5.332;2024-01-11T01:47:56;-2.80;81.80
69533;DHT22;56729;52.036;5.332;2024-01-11T01:48:58;-2.80;81.80
69533;DHT22;56729;52.036;5.332;2024-01-11T01:50:01;-2.80;81.90
69533;DHT22;56729;52.036;5.332;2024-01-11T01:51:05;-2.80;82.90
69533;DHT22;56729;52.036;5.332;2024-01-11T01:52:08;-2.80;82.00
69533;DHT22;56729;52.036;5.332;2024-01-11T01:53:10;-2.80;82.10
69533;DHT22;56729;52.036;5.332;2024-01-11T01:54:12;-2.80;82.10
69533;DHT22;56729;52.036;5.332;2024-01-11T01:55:15;-2.90;82.20
69533;DHT22;56729;52.036;5.332;2024-01-11T01:56:19;-2.90;82.30
69533;DHT22;56729;52.036;5.332;2024-01-11T01:57:21;-2.90;82.30
69533;DHT22;56729;52.036;5.332;2024-01-11T01:58:23;-2.90;82.30
69533;DHT22;56729;52.036;5.332;2024-01-11T01:59:26;-2.90;82.30
69533;DHT22;56729;52.036;5.332;2024-01-11T02:00:29;-2.90;82.40
69533;DHT22;56729;52.036;5.332;2024-01-11T02:01:31;-2.90;82.40
69533;DHT22;56729;52.036;5.332;2024-01-11T02:02:34;-2.90;83.50
69533;DHT22;56729;52.036;5.332;2024-01-11T02:03:37;-3.00;82.50
69533;DHT22;56729;52.036;5.332;2024-01-11T02:04:40;-3.00;82.60
69533;DHT22;56729;52.036;5.332;2024-01-11T02:05:42;-3.00;82.60
69533;DHT22;56729;52.036;5.332;2024-01-11T02:06:46;-3.00;82.70
69533;DHT22;56729;52.036;5.332;2024-01-11T02:07:49;-3.00;82.80
69533;DHT22;56729;52.036;5.332;2024-01-11T02:08:55;-3.00;82.90
69533;DHT22;56729;52.036;5.332;2024-01-11T02:09:58;-3.00;83.00
69533;DHT22;56729;52.036;5.332;2024-01-11T02:11:00;-3.10;83.00
69533;DHT22;56729;52.036;5.332;2024-01-11T02:12:03;-3.00;83.10
69533;DHT22;56729;52.036;5.332;2024-01-11T02:13:06;-3.10;83.10
69533;DHT22;56729;52.036;5.332;2024-01-11T02:14:11;-3.10;83.10
69533;DHT22;56729;52.036;5.332;2024-01-11T02:15:14;-3.10;83.10
69533;DHT22;56729;52.036;5.332;2024-01-11T02:16:16;-3.10;83.20
69533;DHT22;56729;52.036;5.332;2024-01-11T02:17:18;-3.10;83.30
69533;DHT22;56729;52.036;5.332;2024-01-11T02:18:20;-3.10;83.40
69533;DHT22;56729;52.036;5.332;2024-01-11T02:19:23;-3.10;83.50
69533;DHT22;56729;52.036;5.332;2024-01-11T02:20:26;-3.10;83.50
69533;DHT22;56729;52.036;5.332;2024-01-11T02:21:28;-3.10;83.40
69533;DHT22;56729;52.036;5.332;2024-01-11T02:22:38;-3.10;83.40
69533;DHT22;56729;52.036;5.332;2024-01-11T02:24:06;-3.10;83.50
69533;DHT22;56729;52.036;5.332;2024-01-11T02:25:08;-3.10;83.40
69533;DHT22;56729;52.036;5.332;2024-01-11T02:26:11;-3.20;83.30
69533;DHT22;56729;52.036;5.332;2024-01-11T02:27:13;-3.10;83.40
69533;DHT22;56729;52.036;5.332;2024-01-11T02:28:15;-3.10;83.50
69533;DHT22;56729;52.036;5.332;2024-01-11T02:29:17;-3.10;83.50
69533;DHT22;56729;52.036;5.332;2024-01-11T02:30:19;-3.10;83.60
69533;DHT22;56729;52.036;5.332;2024-01-11T02:31:21;-3.20;83.60
69533;DHT22;56729;52.036;5.332;2024-01-11T02:32:23;-3.20;83.50
69533;DHT22;56729;52.036;5.332;2024-01-11T02:33:26;-3.20;83.50
69533;DHT22;56729;52.036;5.332;2024-01-11T02:34:28;-3.20;83.50
69533;DHT22;56729;52.036;5.332;2024-01-11T02:35:32;-3.20;83.50
69533;DHT22;56729;52.036;5.332;2024-01-11T02:36:34;-3.20;83.50
69533;DHT22;56729;52.036;5.332;2024-01-11T02:37:37;-3.20;83.60
69533;DHT22;56729;52.036;5.332;2024-01-11T02:38:41;-3.20;83.80
69533;DHT22;56729;52.036;5.332;2024-01-11T02:39:44;-3.20;83.80
69533;DHT22;56729;52.036;5.332;2024-01-11T02:40:46;-3.30;83.60
69533;DHT22;56729;52.036;5.332;2024-01-11T02:41:50;-3.30;83.40
69533;DHT22;56729;52.036;5.332;2024-01-11T02:42:53;-3.30;83.60
69533;DHT22;56729;52.036;5.332;2024-01-11T02:43:55;-3.40;83.80
69533;DHT22;56729;52.036;5.332;2024-01-11T02:44:57;-3.40;83.90
69533;DHT22;56729;52.036;5.332;2024-01-11T02:45:59;-3.40;84.10
69533;DHT22;56729;52.036;5.332;2024-01-11T02:47:01;-3.40;84.30
69533;DHT22;56729;52.036;5.332;2024-01-11T02:48:03;-3.40;84.50
69533;DHT22;56729;52.036;5.332;2024-01-11T02:49:06;-3.40;84.50
69533;DHT22;56729;52.036;5.332;2024-01-11T02:50:08;-3.40;84.50
69533;DHT22;56729;52.036;5.332;2024-01-11T02:51:10;-3.40;84.50
69533;DHT22;56729;52.036;5.332;2024-01-11T02:52:12;-3.40;84.50
69533;DHT22;56729;52.036;5.332;2024-01-11T02:53:14;-3.40;84.40
69533;DHT22;56729;52.036;5.332;2024-01-11T02:54:16;-3.40;84.40
69533;DHT22;56729;52.036;5.332;2024-01-11T02:55:18;-3.40;84.50
69533;DHT22;56729;52.036;5.332;2024-01-11T02:56:20;-3.40;85.70
69533;DHT22;56729;52.036;5.332;2024-01-11T02:57:22;-3.40;84.80
69533;DHT22;56729;52.036;5.332;2024-01-11T02:58:25;-3.40;84.80
69533;DHT22;56729;52.036;5.332;2024-01-11T02:59:27;-3.40;84.80
69533;DHT22;56729;52.036;5.332;2024-01-11T03:00:29;-3.40;84.80
69533;DHT22;56729;52.036;5.332;2024-01-11T03:01:31;-3.40;84.80
69533;DHT22;56729;52.036;5.332;2024-01-11T03:02:34;-3.40;84.80
69533;DHT22;56729;52.036;5.332;2024-01-11T03:03:36;-3.40;85.70
69533;DHT22;56729;52.036;5.332;2024-01-11T03:04:38;-3.40;84.60
69533;DHT22;56729;52.036;5.332;2024-01-11T03:05:40;-3.40;84.80
69533;DHT22;56729;52.036;5.332;2024-01-11T03:06:42;-3.40;85.00
69533;DHT22;56729;52.036;5.332;2024-01-11T03:07:44;-3.40;85.00
69533;DHT22;56729;52.036;5.332;2024-01-11T03:08:49;-3.40;85.20
69533;DHT22;56729;52.036;5.332;2024-01-11T03:09:51;-3.40;85.10
69533;DHT22;56729;52.036;5.332;2024-01-11T03:10:53;-3.40;85.20
69533;DHT22;56729;52.036;5.332;2024-01-11T03:11:55;-3.40;85.30
69533;DHT22;56729;52.036;5.332;2024-01-11T03:12:57;-3.40;85.20
69533;DHT22;56729;52.036;5.332;2024-01-11T03:13:59;-3.40;85.20
69533;DHT22;56729;52.036;5.332;2024-01-11T03:15:02;-3.40;85.30
69533;DHT22;56729;52.036;5.332;2024-01-11T03:16:05;-3.40;85.30
69533;DHT22;56729;52.036;5.332;2024-01-11T03:17:06;-3.40;85.30
69533;DHT22;56729;52.036;5.332;2024-01-11T03:18:09;-3.40;85.30
69533;DHT22;56729;52.036;5.332;2024-01-11T03:19:11;-3.40;85.20
69533;DHT22;56729;52.036;5.332;2024-01-11T03:20:14;-3.40;85.20
69533;DHT22;56729;52.036;5.332;2024-01-11T03:21:16;-3.40;85.20
69533;DHT22;56729;52.036;5.332;2024-01-11T03:22:17;-3.40;85.20
69533;DHT22;56729;52.036;5.332;2024-01-11T03:23:20;-3.40;85.20
69533;DHT22;56729;52.036;5.332;2024-01-11T03:24:22;-3.40;85.30
69533;DHT22;56729;52.036;5.332;2024-01-11T03:25:24;-3.50;85.20
69533;DHT22;56729;52.036;5.332;2024-01-11T03:26:26;-3.50;85.30
69533;DHT22;56729;52.036;5.332;2024-01-11T03:27:28;-3.50;85.30
69533;DHT22;56729;52.036;5.332;2024-01-11T03:28:29;-3.50;85.30
69533;DHT22;56729;52.036;5.332;2024-01-11T03:29:33;-3.50;85.20
69533;DHT22;56729;52.036;5.332;2024-01-11T03:30:35;-3.50;85.20
69533;DHT22;56729;52.036;5.332;2024-01-11T03:31:37;-3.60;85.20
69533;DHT22;56729;52.036;5.332;2024-01-11T03:32:43;-3.60;85.30
69533;DHT22;56729;52.036;5.332;2024-01-11T03:33:45;-3.60;85.30
69533;DHT22;56729;52.036;5.332;2024-01-11T03:34:47;-3.70;85.40
69533;DHT22;56729;52.036;5.332;2024-01-11T03:35:49;-3.70;85.50
69533;DHT22;56729;52.036;5.332;2024-01-11T03:36:51;-3.70;85.50
69533;DHT22;56729;52.036;5.332;2024-01-11T03:37:53;-3.70;85.60
69533;DHT22;56729;52.036;5.332;2024-01-11T03:38:55;-3.70;85.80
69533;DHT22;56729;52.036;5.332;2024-01-11T03:39:57;-3.70;85.90
69533;DHT22;56729;52.036;5.332;2024-01-11T03:40:59;-3.70;86.20
69533;DHT22;56729;52.036;5.332;2024-01-11T03:42:01;-3.70;86.20
69533;DHT22;56729;52.036;5.332;2024-01-11T03:43:05;-3.80;86.20
69533;DHT22;56729;52.036;5.332;2024-01-11T03:44:07;-3.80;86.30
69533;DHT22;56729;52.036;5.332;2024-01-11T03:45:09;-3.80;86.40
69533;DHT22;56729;52.036;5.332;2024-01-11T03:46:11;-3.70;86.50
69533;DHT22;56729;52.036;5.332;2024-01-11T03:47:13;-3.80;86.60
69533;DHT22;56729;52.036;5.332;2024-01-11T03:48:15;-3.70;86.70
69533;DHT22;56729;52.036;5.332;2024-01-11T03:49:18;-3.70;86.70
69533;DHT22;56729;52.036;5.332;2024-01-11T03:50:19;-3.70;86.90
69533;DHT22;56729;52.036;5.332;2024-01-11T03:51:22;-3.70;86.90
69533;DHT22;56729;52.036;5.332;2024-01-11T03:52:24;-3.70;86.90
69533;DHT22;56729;52.036;5.332;2024-01-11T03:53:26;-3.70;87.00
69533;DHT22;56729;52.036;5.332;2024-01-11T03:54:28;-3.70;86.90
69533;DHT22;56729;52.036;5.332;2024-01-11T03:55:30;-3.70;86.90
69533;DHT22;56729;52.036;5.332;2024-01-11T03:56:32;-3.70;87.00
69533;DHT22;56729;52.036;5.332;2024-01-11T03:57:34;-3.70;87.00
69533;DHT22;56729;52.036;5.332;2024-01-11T03:58:36;-3.70;87.00
69533;DHT22;56729;52.036;5.332;2024-01-11T03:59:41;-3.70;87.00
69533;DHT22;56729;52.036;5.332;2024-01-11T04:00:43;-3.70;87.00
69533;DHT22;56729;52.036;5.332;2024-01-11T04:01:45;-3.70;87.00
69533;DHT22;56729;52.036;5.332;2024-01-11T04:02:47;-3.70;87.00
69533;DHT22;56729;52.036;5.332;2024-01-11T04:03:49;-3.70;87.20
69533;DHT22;56729;52.036;5.332;2024-01-11T04:04:52;-3.70;87.20
69533;DHT22;56729;52.036;5.332;2024-01-11T04:05:55;-3.70;87.40
69533;DHT22;56729;52.036;5.332;2024-01-11T04:06:57;-3.70;87.40
69533;DHT22;56729;52.036;5.332;2024-01-11T04:07:59;-3.70;87.40
69533;DHT22;56729;52.036;5.332;2024-01-11T04:09:01;-3.70;87.50
69533;DHT22;56729;52.036;5.332;2024-01-11T04:10:04;-3.70;87.50
69533;DHT22;56729;52.036;5.332;2024-01-11T04:11:06;-3.70;87.50
69533;DHT22;56729;52.036;5.332;2024-01-11T04:12:08;-3.70;88.60
69533;DHT22;56729;52.036;5.332;2024-01-11T04:13:10;-3.70;88.20
69533;DHT22;56729;52.036;5.332;2024-01-11T04:14:12;-3.70;87.40
69533;DHT22;56729;52.036;5.332;2024-01-11T04:15:14;-3.70;87.30
69533;DHT22;56729;52.036;5.332;2024-01-11T04:16:17;-3.70;87.30
69533;DHT22;56729;52.036;5.332;2024-01-11T04:17:18;-3.70;87.30
69533;DHT22;56729;52.036;5.332;2024-01-11T04:18:21;-3.80;87.30
69533;DHT22;56729;52.036;5.332;2024-01-11T04:19:24;-3.80;87.40
69533;DHT22;56729;52.036;5.332;2024-01-11T04:20:26;-3.80;87.50
69533;DHT22;56729;52.036;5.332;2024-01-11T04:21:28;-3.80;87.50
69533;DHT22;56729;52.036;5.332;2024-01-11T04:22:30;-3.80;87.50
69533;DHT22;56729;52.036;5.332;2024-01-11T04:23:32;-3.80;87.80
69533;DHT22;56729;52.036;5.332;2024-01-11T04:24:34;-3.80;87.80
69533;DHT22;56729;52.036;5.332;2024-01-11T04:25:36;-3.80;88.00
69533;DHT22;56729;52.036;5.332;2024-01-11T04:26:38;-3.80;88.20
69533;DHT22;56729;52.036;5.332;2024-01-11T04:27:40;-3.80;88.30
69533;DHT22;56729;52.036;5.332;2024-01-11T04:28:43;-3.80;88.40
69533;DHT22;56729;52.036;5.332;2024-01-11T04:29:45;-3.80;88.50
69533;DHT22;56729;52.036;5.332;2024-01-11T04:30:47;-3.80;88.50
69533;DHT22;56729;52.036;5.332;2024-01-11T04:31:49;-3.80;88.50
69533;DHT22;56729;52.036;5.332;2024-01-11T04:32:51;-3.80;88.40
69533;DHT22;56729;52.036;5.332;2024-01-11T04:33:53;-3.80;88.30
69533;DHT22;56729;52.036;5.332;2024-01-11T04:34:56;-3.90;88.10
69533;DHT22;56729;52.036;5.332;2024-01-11T04:35:58;-3.90;88.00
69533;DHT22;56729;52.036;5.332;2024-01-11T04:37:00;-3.90;88.00
69533;DHT22;56729;52.036;5.332;2024-01-11T04:38:02;-4.00;88.20
69533;DHT22;56729;52.036;5.332;2024-01-11T04:39:05;-4.00;89.50
69533;DHT22;56729;52.036;5.332;2024-01-11T04:40:09;-4.00;88.90
69533;DHT22;56729;52.036;5.332;2024-01-11T04:41:12;-4.00;89.00
69533;DHT22;56729;52.036;5.332;2024-01-11T04:42:14;-4.00;89.10
69533;DHT22;56729;52.036;5.332;2024-01-11T04:43:16;-4.00;89.20
69533;DHT22;56729;52.036;5.332;2024-01-11T04:44:18;-4.00;89.30
69533;DHT22;56729;52.036;5.332;2024-01-11T04:45:20;-4.00;89.30
69533;DHT22;56729;52.036;5.332;2024-01-11T04:46:23;-4.00;89.40
69533;DHT22;56729;52.036;5.332;2024-01-11T04:47:25;-3.90;89.50
69533;DHT22;56729;52.036;5.332;2024-01-11T04:48:27;-3.90;89.30
69533;DHT22;56729;52.036;5.332;2024-01-11T04:49:29;-4.00;88.90
69533;DHT22;56729;52.036;5.332;2024-01-11T04:50:33;-4.00;88.90
69533;DHT22;56729;52.036;5.332;2024-01-11T04:51:35;-4.00;89.10
69533;DHT22;56729;52.036;5.332;2024-01-11T04:52:37;-4.00;89.20
69533;DHT22;56729;52.036;5.332;2024-01-11T04:53:40;-4.00;89.40
69533;DHT22;56729;52.036;5.332;2024-01-11T04:54:42;-4.00;89.50
69533;DHT22;56729;52.036;5.332;2024-01-11T04:55:44;-4.00;89.70
69533;DHT22;56729;52.036;5.332;2024-01-11T04:56:46;-4.00;89.40
69533;DHT22;56729;52.036;5.332;2024-01-11T04:57:48;-4.00;89.40
69533;DHT22;56729;52.036;5.332;2024-01-11T04:58:50;-4.00;89.60
69533;DHT22;56729;52.036;5.332;2024-01-11T04:59:52;-4.00;89.80
69533;DHT22;56729;52.036;5.332;2024-01-11T05:00:55;-4.00;89.80
69533;DHT22;56729;52.036;5.332;2024-01-11T05:01:56;-4.10;89.70
69533;DHT22;56729;52.036;5.332;2024-01-11T05:02:58;-4.00;89.80
69533;DHT22;56729;52.036;5.332;2024-01-11T05:04:00;-4.10;89.80
69533;DHT22;56729;52.036;5.332;2024-01-11T05:05:03;-4.10;89.80
69533;DHT22;56729;52.036;5.332;2024-01-11T05:06:05;-4.10;89.80
69533;DHT22;56729;52.036;5.332;2024-01-11T05:07:08;-4.10;90.00
69533;DHT22;56729;52.036;5.332;2024-01-11T05:08:10;-4.10;90.10
69533;DHT22;56729;52.036;5.332;2024-01-11T05:09:12;-4.10;90.10
69533;DHT22;56729;52.036;5.332;2024-01-11T05:10:14;-4.10;90.10
69533;DHT22;56729;52.036;5.332;2024-01-11T05:11:20;-4.10;90.20
69533;DHT22;56729;52.036;5.332;2024-01-11T05:12:22;-4.10;90.20
69533;DHT22;56729;52.036;5.332;2024-01-11T05:13:24;-4.10;90.20
69533;DHT22;56729;52.036;5.332;2024-01-11T05:14:26;-4.10;90.20
69533;DHT22;56729;52.036;5.332;2024-01-11T05:15:28;-4.00;90.30
69533;DHT22;56729;52.036;5.332;2024-01-11T05:16:30;-4.00;90.30
69533;DHT22;56729;52.036;5.332;2024-01-11T05:17:32;-4.00;90.20
69533;DHT22;56729;52.036;5.332;2024-01-11T05:18:34;-4.00;90.20
69533;DHT22;56729;52.036;5.332;2024-01-11T05:19:36;-4.10;90.20
69533;DHT22;56729;52.036;5.332;2024-01-11T05:20:38;-4.10;90.20
69533;DHT22;56729;52.036;5.332;2024-01-11T05:21:41;-4.10;90.30
69533;DHT22;56729;52.036;5.332;2024-01-11T05:22:43;-4.10;90.40
69533;DHT22;56729;52.036;5.332;2024-01-11T05:23:45;-4.10;90.40
69533;DHT22;56729;52.036;5.332;2024-01-11T05:24:47;-4.00;90.50
69533;DHT22;56729;52.036;5.332;2024-01-11T05:25:49;-4.00;90.50
69533;DHT22;56729;52.036;5.332;2024-01-11T05:26:51;-4.10;90.50
69533;DHT22;56729;52.036;5.332;2024-01-11T05:27:53;-4.10;90.50
69533;DHT22;56729;52.036;5.332;2024-01-11T05:28:55;-4.00;90.60
69533;DHT22;56729;52.036;5.332;2024-01-11T05:29:57;-4.00;90.60
69533;DHT22;56729;52.036;5.332;2024-01-11T05:31:00;-4.00;90.60
69533;DHT22;56729;52.036;5.332;2024-01-11T05:32:02;-4.10;90.60
69533;DHT22;56729;52.036;5.332;2024-01-11T05:33:05;-4.00;90.70
69533;DHT22;56729;52.036;5.332;2024-01-11T05:34:07;-4.00;90.80
69533;DHT22;56729;52.036;5.332;2024-01-11T05:35:10;-4.00;90.80
69533;DHT22;56729;52.036;5.332;2024-01-11T05:36:13;-4.00;90.80
69533;DHT22;56729;52.036;5.332;2024-01-11T05:37:15;-4.00;90.90
69533;DHT22;56729;52.036;5.332;2024-01-11T05:38:17;-4.00;90.90
69533;DHT22;56729;52.036;5.332;2024-01-11T05:39:19;-4.00;90.80
69533;DHT22;56729;52.036;5.332;2024-01-11T05:40:21;-4.00;90.80
69533;DHT22;56729;52.036;5.332;2024-01-11T05:41:23;-4.00;90.80
69533;DHT22;56729;52.036;5.332;2024-01-11T05:42:25;-3.90;90.80
69533;DHT22;56729;52.036;5.332;2024-01-11T05:43:27;-4.00;90.80
69533;DHT22;56729;52.036;5.332;2024-01-11T05:44:29;-4.00;90.70
69533;DHT22;56729;52.036;5.332;2024-01-11T05:45:31;-4.00;90.70
69533;DHT22;56729;52.036;5.332;2024-01-11T05:46:48;-4.00;90.80
69533;DHT22;56729;52.036;5.332;2024-01-11T05:47:50;-4.00;90.80
69533;DHT22;56729;52.036;5.332;2024-01-11T05:48:53;-4.00;90.80
69533;DHT22;56729;52.036;5.332;2024-01-11T05:49:55;-4.00;90.80
69533;DHT22;56729;52.036;5.332;2024-01-11T05:50:57;-4.10;90.80
69533;DHT22;56729;52.036;5.332;2024-01-11T05:51:59;-4.00;90.90
69533;DHT22;56729;52.036;5.332;2024-01-11T05:53:01;-4.10;90.90
69533;DHT22;56729;52.036;5.332;2024-01-11T05:54:03;-4.10;91.00
69533;DHT22;56729;52.036;5.332;2024-01-11T05:55:06;-4.00;91.00
69533;DHT22;56729;52.036;5.332;2024-01-11T05:56:08;-4.00;91.10
69533;DHT22;56729;52.036;5.332;2024-01-11T05:57:11;-4.00;91.20
69533;DHT22;56729;52.036;5.332;2024-01-11T05:58:13;-4.00;91.20
69533;DHT22;56729;52.036;5.332;2024-01-11T05:59:15;-4.00;91.20
69533;DHT22;56729;52.036;5.332;2024-01-11T06:00:18;-4.00;91.10
69533;DHT22;56729;52.036;5.332;2024-01-11T06:01:20;-4.00;91.00
69533;DHT22;56729;52.036;5.332;2024-01-11T06:02:23;-4.10;90.90
69533;DHT22;56729;52.036;5.332;2024-01-11T06:03:25;-4.10;91.00
69533;DHT22;56729;52.036;5.332;2024-01-11T06:04:27;-4.10;91.10
69533;DHT22;56729;52.036;5.332;2024-01-11T06:05:29;-4.10;91.20
69533;DHT22;56729;52.036;5.332;2024-01-11T06:06:31;-4.10;91.30
69533;DHT22;56729;52.036;5.332;2024-01-11T06:07:33;-4.10;91.30
69533;DHT22;56729;52.036;5.332;2024-01-11T06:08:35;-4.10;91.40
69533;DHT22;56729;52.036;5.332;2024-01-11T06:09:38;-4.10;91.40
69533;DHT22;56729;52.036;5.332;2024-01-11T06:10:39;-4.10;91.40
69533;DHT22;56729;52.036;5.332;2024-01-11T06:11:41;-4.10;91.50
69533;DHT22;56729;52.036;5.332;2024-01-11T06:12:44;-4.10;91.50
69533;DHT22;56729;52.036;5.332;2024-01-11T06:13:46;-4.10;91.50
69533;DHT22;56729;52.036;5.332;2024-01-11T06:14:48;-4.00;91.50
69533;DHT22;56729;52.036;5.332;2024-01-11T06:15:50;-4.00;91.50
69533;DHT22;56729;52.036;5.332;2024-01-11T06:16:52;-4.00;91.50
69533;DHT22;56729;52.036;5.332;2024-01-11T06:17:54;-4.00;91.40
69533;DHT22;56729;52.036;5.332;2024-01-11T06:18:57;-4.00;91.40
69533;DHT22;56729;52.036;5.332;2024-01-11T06:19:59;-4.00;91.90
69533;DHT22;56729;52.036;5.332;2024-01-11T06:21:01;-4.00;91.40
69533;DHT22;56729;52.036;5.332;2024-01-11T06:22:03;-4.00;91.40
69533;DHT22;56729;52.036;5.332;2024-01-11T06:23:05;-4.00;91.40
69533;DHT22;56729;52.036;5.332;2024-01-11T06:24:07;-4.00;91.40
69533;DHT22;56729;52.036;5.332;2024-01-11T06:25:09;-4.00;91.40
69533;DHT22;56729;52.036;5.332;2024-01-11T06:26:11;-4.00;91.40
69533;DHT22;56729;52.036;5.332;2024-01-11T06:27:13;-4.00;91.30
69533;DHT22;56729;52.036;5.332;2024-01-11T06:28:15;-4.00;91.20
69533;DHT22;56729;52.036;5.332;2024-01-11T06:29:17;-4.10;91.30
69533;DHT22;56729;52.036;5.332;2024-01-11T06:30:19;-4.00;91.40
69533;DHT22;56729;52.036;5.332;2024-01-11T06:31:21;-4.00;91.50
69533;DHT22;56729;52.036;5.332;2024-01-11T06:32:23;-4.10;91.50
69533;DHT22;56729;52.036;5.332;2024-01-11T06:33:25;-4.10;91.50
69533;DHT22;56729;52.036;5.332;2024-01-11T06:34:27;-4.10;91.60